Time;durP1;ratioP1;P1;durP2;ratioP2;P2;SDS_P1;SDS_P2;PMS_P1;PMS_P2;Temp;Humidity;BMP_temperature;BMP_pressure;BME280_temperature;BME280_humidity;BME280_pressure;Samples;Min_cycle;Max_cycle;Signal;HPM_P1;HPM_P2
2023/04/14 00:02:23;;;;;;;1.50;1.23;;;;;;;;;;5033403;28;20566;-43
2023/04/14 00:04:52;;;;;;;2.60;1.55;;;;;;;;;;5033033;28;20222;-42
2023/04/14 00:07:19;;;;;;;1.45;1.35;;;;;;;;;;5033298;28;20615;-42
2023/04/14 00:09:46;;;;;;;1.63;1.35;;;;;;;;;;5033564;28;20196;-43
2023/04/14 00:12:14;;;;;;;2.30;1.35;;;;;;;;;;5033104;28;20597;-42
2023/04/14 00:14:42;;;;;;;2.08;1.27;;;;;;;;;;5033107;28;20204;-45
2023/04/14 00:17:10;;;;;;;2.08;1.35;;;;;;;;;;5033316;28;20600;-42
2023/04/14 00:19:37;;;;;;;1.98;1.42;;;;;;;;;;5033088;28;20200;-42
2023/04/14 00:22:04;;;;;;;1.25;1.10;;;;;;;;;;5033326;28;20208;-42
2023/04/14 00:24:31;;;;;;;3.08;2.28;;;;;;;;;;5032914;28;20224;-42
2023/04/14 00:26:58;;;;;;;3.55;2.25;;;;;;;;;;5032769;28;20213;-42
2023/04/14 00:29:25;;;;;;;1.92;1.35;;;;;;;;;;5033331;28;20251;-41
2023/04/14 00:31:53;;;;;;;2.15;1.95;;;;;;;;;;5033195;28;20259;-42
2023/04/14 00:34:20;;;;;;;1.63;1.40;;;;;;;;;;5032958;28;20231;-42
2023/04/14 00:36:47;;;;;;;1.80;1.50;;;;;;;;;;5015318;28;20535;-43
2023/04/14 00:39:14;;;;;;;1.80;1.48;;;;;;;;;;5015405;28;20208;-45
2023/04/14 00:41:42;;;;;;;12.02;6.78;;;;;;;;;;5033133;28;20606;-42
2023/04/14 00:44:09;;;;;;;3.38;2.38;;;;;;;;;;5032815;28;20205;-42
2023/04/14 00:46:36;;;;;;;6.03;3.92;;;;;;;;;;5032806;28;20209;-42
2023/04/14 00:49:03;;;;;;;1.70;1.30;;;;;;;;;;5032953;28;20283;-42
2023/04/14 00:51:32;;;;;;;2.38;1.73;;;;;;;;;;5032862;28;20211;-42
2023/04/14 00:54:02;;;;;;;2.58;1.73;;;;;;;;;;5015083;28;20657;-43
2023/04/14 00:56:30;;;;;;;3.35;2.25;;;;;;;;;;5032834;28;20631;-42
2023/04/14 00:59:01;;;;;;;2.00;1.75;;;;;;;;;;5015353;28;20201;-44
2023/04/14 01:01:29;;;;;;;2.33;1.50;;;;;;;;;;5017654;28;20565;-42
2023/04/14 01:03:57;;;;;;;3.08;1.55;;;;;;;;;;5051884;28;20263;-43
2023/04/14 01:06:26;;;;;;;3.35;2.17;;;;;;;;;;5036030;28;20602;-42
2023/04/14 01:08:53;;;;;;;1.90;1.45;;;;;;;;;;5051766;28;20238;-42
2023/04/14 01:11:35;;;;;;;2.13;1.63;;;;;;;;;;5018420;28;20740;-42
2023/04/14 01:14:12;;;;;;;8.85;2.25;;;;;;;;;;5002452;28;20195;-42
2023/04/14 01:16:41;;;;;;;2.85;1.63;;;;;;;;;;5018876;28;20695;-42
2023/04/14 01:19:24;;;;;;;5.60;2.80;;;;;;;;;;5018280;28;20219;-42
2023/04/14 01:22:03;;;;;;;5.20;2.55;;;;;;;;;;5025168;28;20228;-42
2023/04/14 01:24:52;;;;;;;8.48;2.08;;;;;;;;;;5015086;28;20201;-41
2023/04/14 01:27:47;;;;;;;5.03;2.78;;;;;;;;;;5016198;28;20246;-42
2023/04/14 01:30:24;;;;;;;4.80;2.22;;;;;;;;;;5015948;28;20200;-42
2023/04/14 01:32:52;;;;;;;5.43;2.90;;;;;;;;;;5017106;28;20237;-42
2023/04/14 01:35:30;;;;;;;3.22;1.98;;;;;;;;;;5001846;28;20553;-42
2023/04/14 01:38:06;;;;;;;1.90;1.30;;;;;;;;;;5017752;28;20609;-43
2023/04/14 01:40:35;;;;;;;1.83;1.23;;;;;;;;;;5034529;28;20211;-41
2023/04/14 01:43:10;;;;;;;3.10;2.33;;;;;;;;;;5034498;28;20212;-43
2023/04/14 01:45:40;;;;;;;2.80;1.80;;;;;;;;;;5018028;28;20236;-42
2023/04/14 01:48:09;;;;;;;2.13;1.52;;;;;;;;;;5034949;28;20197;-42
2023/04/14 01:50:36;;;;;;;2.13;1.75;;;;;;;;;;5017874;28;20224;-42
2023/04/14 01:53:06;;;;;;;4.38;2.38;;;;;;;;;;5034203;28;20591;-42
2023/04/14 01:55:36;;;;;;;4.30;2.22;;;;;;;;;;5034522;28;20224;-42
2023/04/14 01:58:05;;;;;;;2.42;1.73;;;;;;;;;;5018346;28;20535;-42
2023/04/14 02:00:35;;;;;;;3.35;1.90;;;;;;;;;;5050513;28;20727;-42
2023/04/14 02:03:03;;;;;;;3.05;1.83;;;;;;;;;;5018036;28;20259;-42
2023/04/14 02:05:33;;;;;;;2.22;1.77;;;;;;;;;;5035108;28;20282;-43
2023/04/14 02:08:02;;;;;;;1.50;1.40;;;;;;;;;;5018010;28;20197;-42
2023/04/14 02:10:30;;;;;;;2.45;1.80;;;;;;;;;;5017812;28;20215;-42
2023/04/14 02:12:58;;;;;;;2.20;1.90;;;;;;;;;;5033763;28;20262;-43
2023/04/14 02:15:27;;;;;;;2.40;1.83;;;;;;;;;;5035191;28;20211;-43
2023/04/14 02:17:56;;;;;;;2.85;1.83;;;;;;;;;;5050027;28;20208;-42
2023/04/14 02:20:25;;;;;;;2.25;1.50;;;;;;;;;;5034701;28;20287;-43
2023/04/14 02:22:52;;;;;;;2.15;1.23;;;;;;;;;;5034975;28;20209;-42
2023/04/14 02:25:25;;;;;;;2.75;1.60;;;;;;;;;;5034845;28;20228;-43
2023/04/14 02:27:55;;;;;;;1.42;1.33;;;;;;;;;;5034215;28;20220;-42
2023/04/14 02:30:31;;;;;;;1.77;1.42;;;;;;;;;;5017073;28;20210;-43
2023/04/14 02:33:07;;;;;;;2.00;1.45;;;;;;;;;;5033780;28;20228;-42
2023/04/14 02:35:40;;;;;;;1.90;1.60;;;;;;;;;;5017455;28;20205;-42
2023/04/14 02:38:38;;;;;;;2.03;1.27;;;;;;;;;;5016977;28;20205;-42
2023/04/14 02:41:13;;;;;;;1.40;1.27;;;;;;;;;;5048843;28;20205;-41
2023/04/14 02:43:44;;;;;;;1.75;1.60;;;;;;;;;;5035004;28;20254;-42
2023/04/14 02:46:13;;;;;;;2.03;1.67;;;;;;;;;;5033284;28;20220;-42
2023/04/14 02:48:41;;;;;;;1.55;1.35;;;;;;;;;;5016849;28;20211;-42
2023/04/14 02:51:11;;;;;;;2.42;1.73;;;;;;;;;;5049629;28;20232;-42
2023/04/14 02:53:39;;;;;;;2.88;2.00;;;;;;;;;;5032977;28;20209;-42
2023/04/14 02:56:19;;;;;;;3.30;2.08;;;;;;;;;;5050101;28;20188;-42
2023/04/14 02:58:49;;;;;;;2.47;1.77;;;;;;;;;;5016649;28;20624;-42
2023/04/14 03:01:18;;;;;;;2.08;1.40;;;;;;;;;;5016819;28;20211;-42
2023/04/14 03:03:47;;;;;;;1.50;1.40;;;;;;;;;;5016504;28;20207;-42
2023/04/14 03:06:15;;;;;;;2.05;1.63;;;;;;;;;;5016375;28;20231;-43
2023/04/14 03:08:43;;;;;;;1.83;1.65;;;;;;;;;;5016606;28;20235;-42
2023/04/14 03:11:11;;;;;;;1.88;1.42;;;;;;;;;;5016244;28;20208;-43
2023/04/14 03:13:40;;;;;;;2.00;1.60;;;;;;;;;;5016280;28;20211;-42
2023/04/14 03:16:08;;;;;;;2.63;1.80;;;;;;;;;;5015896;28;20204;-44
2023/04/14 03:18:36;;;;;;;3.47;1.70;;;;;;;;;;5048751;28;20563;-42
2023/04/14 03:21:04;;;;;;;3.08;2.13;;;;;;;;;;5032415;28;20204;-42
2023/04/14 03:23:32;;;;;;;2.45;1.67;;;;;;;;;;5031897;28;20204;-42
2023/04/14 03:26:05;;;;;;;2.33;1.65;;;;;;;;;;5016229;28;20223;-42
2023/04/14 03:28:34;;;;;;;1.80;1.65;;;;;;;;;;5032385;28;20212;-42
2023/04/14 03:31:05;;;;;;;2.03;1.55;;;;;;;;;;5016136;28;20208;-42
2023/04/14 03:33:45;;;;;;;2.17;1.58;;;;;;;;;;5015975;28;20208;-42
2023/04/14 03:36:15;;;;;;;1.95;1.45;;;;;;;;;;5016646;28;20658;-43
2023/04/14 03:38:43;;;;;;;2.20;1.50;;;;;;;;;;5015708;28;20200;-42
2023/04/14 03:41:10;;;;;;;2.58;1.67;;;;;;;;;;5033166;28;20213;-42
2023/04/14 03:43:39;;;;;;;1.85;1.63;;;;;;;;;;4999866;28;20200;-42
2023/04/14 03:46:11;;;;;;;2.90;2.28;;;;;;;;;;5015877;28;20225;-42
2023/04/14 03:48:43;;;;;;;2.67;1.70;;;;;;;;;;5033287;28;20205;-42
2023/04/14 03:51:13;;;;;;;2.10;1.60;;;;;;;;;;5015748;28;20199;-42
2023/04/14 03:53:43;;;;;;;2.45;1.60;;;;;;;;;;5015448;28;20256;-42
2023/04/14 03:56:13;;;;;;;2.58;1.92;;;;;;;;;;5014936;28;20564;-43
2023/04/14 03:58:43;;;;;;;2.22;1.95;;;;;;;;;;5015491;28;20255;-42
2023/04/14 04:01:10;;;;;;;2.90;2.15;;;;;;;;;;4999045;28;20703;-43
2023/04/14 04:03:38;;;;;;;2.35;1.83;;;;;;;;;;5015537;28;20197;-43
2023/04/14 04:06:06;;;;;;;4.53;2.08;;;;;;;;;;5015259;28;20231;-42
2023/04/14 04:08:35;;;;;;;2.42;1.83;;;;;;;;;;4999318;28;20259;-44
2023/04/14 04:11:04;;;;;;;2.50;1.73;;;;;;;;;;5015581;28;20262;-42
2023/04/14 04:13:32;;;;;;;2.85;2.17;;;;;;;;;;4995164;28;20623;-41
2023/04/14 04:16:00;;;;;;;2.20;1.70;;;;;;;;;;5031707;28;20275;-43
2023/04/14 04:18:29;;;;;;;4.18;1.80;;;;;;;;;;5014915;28;20229;-42
2023/04/14 04:20:57;;;;;;;2.38;2.13;;;;;;;;;;5014712;28;20751;-42
2023/04/14 04:23:29;;;;;;;2.55;1.98;;;;;;;;;;5013457;28;20713;-46
2023/04/14 04:25:56;;;;;;;1.83;1.40;;;;;;;;;;5014787;28;20263;-44
2023/04/14 04:28:31;;;;;;;1.88;1.33;;;;;;;;;;5026143;28;20234;-45
2023/04/14 04:30:59;;;;;;;1.70;1.60;;;;;;;;;;5051059;28;20227;-46
2023/04/14 04:33:29;;;;;;;2.38;1.70;;;;;;;;;;5018318;28;20610;-43
2023/04/14 04:35:57;;;;;;;2.42;1.60;;;;;;;;;;5036172;28;20310;-45
2023/04/14 04:38:30;;;;;;;2.53;1.70;;;;;;;;;;5038036;28;20228;-44
2023/04/14 04:40:58;;;;;;;2.35;1.65;;;;;;;;;;5037489;28;20277;-44
2023/04/14 04:43:27;;;;;;;1.88;1.67;;;;;;;;;;5016566;28;20221;-44
2023/04/14 04:46:33;;;;;;;2.15;1.67;;;;;;;;;;5016803;28;20219;-43
2023/04/14 04:49:00;;;;;;;2.40;2.03;;;;;;;;;;5041962;28;20224;-42
2023/04/14 04:51:30;;;;;;;2.75;1.90;;;;;;;;;;5006695;28;20212;-47
2023/04/14 04:53:57;;;;;;;2.35;1.85;;;;;;;;;;5024431;28;20220;-42
2023/04/14 04:56:25;;;;;;;3.83;2.03;;;;;;;;;;5034329;28;20227;-42
2023/04/14 04:58:52;;;;;;;2.80;2.00;;;;;;;;;;5033561;28;20220;-47
2023/04/14 05:01:19;;;;;;;2.83;2.13;;;;;;;;;;5031373;28;20583;-43
2023/04/14 05:03:47;;;;;;;2.22;1.83;;;;;;;;;;5033685;28;20232;-42
2023/04/14 05:06:14;;;;;;;4.15;2.65;;;;;;;;;;5033524;28;20232;-43
2023/04/14 05:08:41;;;;;;;2.85;2.13;;;;;;;;;;5033783;28;20625;-44
2023/04/14 05:11:08;;;;;;;2.80;2.00;;;;;;;;;;5032615;28;20244;-44
2023/04/14 05:13:36;;;;;;;3.33;2.15;;;;;;;;;;5034048;28;20236;-43
2023/04/14 05:16:08;;;;;;;4.00;2.17;;;;;;;;;;5035446;28;20220;-43
2023/04/14 05:18:36;;;;;;;2.55;1.90;;;;;;;;;;5035483;28;20228;-42
2023/04/14 05:21:07;;;;;;;3.83;2.80;;;;;;;;;;5035282;28;20221;-43
2023/04/14 05:23:37;;;;;;;3.70;2.97;;;;;;;;;;5033873;28;20224;-45
2023/04/14 05:26:04;;;;;;;4.20;2.88;;;;;;;;;;5033908;28;20282;-44
2023/04/14 05:28:52;;;;;;;3.85;2.63;;;;;;;;;;5034930;28;20225;-44
2023/04/14 05:31:19;;;;;;;4.45;3.13;;;;;;;;;;5034278;28;20244;-42
2023/04/14 05:33:46;;;;;;;3.75;2.28;;;;;;;;;;5031098;28;20229;-43
2023/04/14 05:36:13;;;;;;;3.28;2.40;;;;;;;;;;5017131;28;20291;-43
2023/04/14 05:38:41;;;;;;;4.00;2.80;;;;;;;;;;5035042;28;20233;-45
2023/04/14 05:41:08;;;;;;;3.63;2.53;;;;;;;;;;5034573;28;20311;-52
2023/04/14 05:43:35;;;;;;;3.90;2.55;;;;;;;;;;5017486;28;20233;-43
2023/04/14 05:46:03;;;;;;;3.70;2.70;;;;;;;;;;5034491;28;20220;-44
2023/04/14 05:48:32;;;;;;;4.75;3.13;;;;;;;;;;5034522;28;20224;-44
2023/04/14 05:50:59;;;;;;;5.55;3.45;;;;;;;;;;5034743;28;20220;-44
2023/04/14 05:53:26;;;;;;;4.68;2.97;;;;;;;;;;5034434;28;20244;-43
2023/04/14 05:55:55;;;;;;;5.40;3.53;;;;;;;;;;5034376;28;20236;-44
2023/04/14 05:58:25;;;;;;;5.45;3.70;;;;;;;;;;5045005;28;20228;-42
2023/04/14 06:00:52;;;;;;;4.03;3.30;;;;;;;;;;5054421;28;20250;-43
2023/04/14 06:03:20;;;;;;;5.60;3.90;;;;;;;;;;5039679;28;20716;-40
2023/04/14 06:05:47;;;;;;;6.40;4.22;;;;;;;;;;5034535;28;20290;-44
2023/04/14 06:08:14;;;;;;;7.88;5.10;;;;;;;;;;5034453;28;20623;-43
2023/04/14 06:10:42;;;;;;;5.55;3.92;;;;;;;;;;5034442;28;20228;-45
2023/04/14 06:13:09;;;;;;;6.70;4.22;;;;;;;;;;5034075;28;20225;-44
2023/04/14 06:15:37;;;;;;;6.55;4.28;;;;;;;;;;5034034;28;20712;-42
2023/04/14 06:18:04;;;;;;;6.40;4.05;;;;;;;;;;5033825;28;20224;-44
2023/04/14 06:20:31;;;;;;;8.65;4.78;;;;;;;;;;5034040;28;20251;-42
2023/04/14 06:22:59;;;;;;;8.70;5.25;;;;;;;;;;5034226;28;20231;-43
2023/04/14 06:25:26;;;;;;;6.38;3.50;;;;;;;;;;5033681;28;20847;-42
2023/04/14 06:27:54;;;;;;;6.00;3.58;;;;;;;;;;5033665;28;20255;-45
2023/04/14 06:30:21;;;;;;;6.00;3.80;;;;;;;;;;5032481;28;20414;-44
2023/04/14 06:32:52;;;;;;;6.70;4.18;;;;;;;;;;5033540;28;20236;-42
2023/04/14 06:35:20;;;;;;;6.68;4.40;;;;;;;;;;5016347;28;20228;-45
2023/04/14 06:38:02;;;;;;;5.28;4.07;;;;;;;;;;5034149;28;20239;-43
2023/04/14 06:40:29;;;;;;;6.78;4.53;;;;;;;;;;5033249;28;20232;-43
2023/04/14 06:42:57;;;;;;;7.90;4.80;;;;;;;;;;5033769;28;20221;-43
2023/04/14 06:45:24;;;;;;;8.07;4.70;;;;;;;;;;5033145;28;20232;-43
2023/04/14 06:47:51;;;;;;;6.43;4.78;;;;;;;;;;5032157;28;20244;-47
2023/04/14 06:50:18;;;;;;;7.38;4.47;;;;;;;;;;5032556;28;20220;-43
2023/04/14 06:52:46;;;;;;;5.03;3.20;;;;;;;;;;5032968;28;20220;-46
2023/04/14 06:55:13;;;;;;;7.78;4.40;;;;;;;;;;5031545;28;20232;-44
2023/04/14 06:57:40;;;;;;;6.38;4.22;;;;;;;;;;5032822;28;20274;-43
2023/04/14 07:00:09;;;;;;;5.68;4.20;;;;;;;;;;5033028;28;20220;-44
2023/04/14 07:02:37;;;;;;;6.50;4.50;;;;;;;;;;5033086;28;20232;-43
2023/04/14 07:05:04;;;;;;;9.45;4.40;;;;;;;;;;5033485;28;20228;-43
2023/04/14 07:07:36;;;;;;;5.95;3.67;;;;;;;;;;5033188;28;20228;-42
2023/04/14 07:10:03;;;;;;;7.00;4.78;;;;;;;;;;5033631;28;20229;-43
2023/04/14 07:12:32;;;;;;;5.47;4.00;;;;;;;;;;5032963;28;20224;-42
2023/04/14 07:14:58;;;;;;;7.85;3.92;;;;;;;;;;5033169;28;20217;-41
2023/04/14 07:17:26;;;;;;;7.15;5.20;;;;;;;;;;5032189;28;20221;-42
2023/04/14 07:19:53;;;;;;;8.82;5.22;;;;;;;;;;5033062;28;20713;-42
2023/04/14 07:22:20;;;;;;;5.82;3.80;;;;;;;;;;5032695;28;20559;-43
2023/04/14 07:24:47;;;;;;;7.32;4.93;;;;;;;;;;5032590;28;20220;-44
2023/04/14 07:27:14;;;;;;;7.50;4.78;;;;;;;;;;5031218;28;20240;-42
2023/04/14 07:29:41;;;;;;;6.80;3.92;;;;;;;;;;5033209;28;20315;-41
2023/04/14 07:32:10;;;;;;;5.60;4.35;;;;;;;;;;5032052;28;20615;-44
2023/04/14 07:34:42;;;;;;;8.95;5.28;;;;;;;;;;5032988;28;20248;-43
2023/04/14 07:37:10;;;;;;;5.80;4.07;;;;;;;;;;5032543;28;20228;-45
2023/04/14 07:39:38;;;;;;;5.70;4.13;;;;;;;;;;5032803;28;20724;-43
2023/04/14 07:42:05;;;;;;;6.55;3.83;;;;;;;;;;5032220;28;20251;-44
2023/04/14 07:44:33;;;;;;;5.38;3.72;;;;;;;;;;5032672;28;20231;-42
2023/04/14 07:47:00;;;;;;;5.55;3.67;;;;;;;;;;5032434;28;20232;-43
2023/04/14 07:49:27;;;;;;;7.93;4.32;;;;;;;;;;5032756;28;20247;-43
2023/04/14 07:51:55;;;;;;;4.90;3.38;;;;;;;;;;5032757;28;20224;-42
2023/04/14 07:54:23;;;;;;;3.90;2.80;;;;;;;;;;5032659;28;20662;-42
2023/04/14 07:56:50;;;;;;;6.03;3.67;;;;;;;;;;5032402;28;20229;-42
2023/04/14 07:59:17;;;;;;;4.15;2.85;;;;;;;;;;5050463;28;20309;-42
2023/04/14 08:01:45;;;;;;;4.68;2.90;;;;;;;;;;5052105;28;20227;-44
2023/04/14 08:04:12;;;;;;;5.25;2.65;;;;;;;;;;5052075;28;20255;-43
2023/04/14 08:06:39;;;;;;;3.45;2.30;;;;;;;;;;5052141;28;20232;-42
2023/04/14 08:09:06;;;;;;;14.60;5.88;;;;;;;;;;5053121;28;20228;-42
2023/04/14 08:11:34;;;;;;;6.15;2.95;;;;;;;;;;5055992;28;20227;-43
2023/04/14 08:14:01;;;;;;;6.88;3.20;;;;;;;;;;5037635;28;20715;-44
2023/04/14 08:16:29;;;;;;;4.47;2.63;;;;;;;;;;5035659;28;20580;-43
2023/04/14 08:18:56;;;;;;;4.03;2.50;;;;;;;;;;5037041;28;20220;-43
2023/04/14 08:21:24;;;;;;;5.60;2.95;;;;;;;;;;5037098;28;20208;-44
2023/04/14 08:23:51;;;;;;;4.22;2.70;;;;;;;;;;5037171;28;20212;-43
2023/04/14 08:26:18;;;;;;;3.80;2.33;;;;;;;;;;5036626;28;20204;-43
2023/04/14 08:28:45;;;;;;;3.50;2.78;;;;;;;;;;5019412;28;20639;-44
2023/04/14 08:31:13;;;;;;;5.15;3.22;;;;;;;;;;5036033;28;20624;-44
2023/04/14 08:33:40;;;;;;;5.10;3.53;;;;;;;;;;5036737;28;20649;-45
2023/04/14 08:36:07;;;;;;;4.20;2.80;;;;;;;;;;5036994;28;20208;-45
2023/04/14 08:38:34;;;;;;;3.65;2.50;;;;;;;;;;5036745;28;20215;-43
2023/04/14 08:41:03;;;;;;;4.38;2.83;;;;;;;;;;5036528;28;20205;-43
2023/04/14 08:43:30;;;;;;;5.22;3.42;;;;;;;;;;5036636;28;20200;-42
2023/04/14 08:45:58;;;;;;;3.53;2.90;;;;;;;;;;5036103;28;20736;-42
2023/04/14 08:48:28;;;;;;;3.65;2.63;;;;;;;;;;5036858;28;20232;-43
2023/04/14 08:51:17;;;;;;;4.13;2.47;;;;;;;;;;5036770;28;20211;-43
2023/04/14 08:53:47;;;;;;;4.22;2.55;;;;;;;;;;5036323;28;20204;-42
2023/04/14 08:56:16;;;;;;;4.90;2.63;;;;;;;;;;5036102;28;20681;-43
2023/04/14 08:58:43;;;;;;;4.57;2.72;;;;;;;;;;5035155;28;20696;-43
2023/04/14 09:01:11;;;;;;;3.92;2.58;;;;;;;;;;5035837;28;20204;-44
2023/04/14 09:03:38;;;;;;;3.83;3.03;;;;;;;;;;5036104;28;20284;-43
2023/04/14 09:06:06;;;;;;;3.67;2.33;;;;;;;;;;5035085;28;20197;-44
2023/04/14 09:08:34;;;;;;;7.20;3.95;;;;;;;;;;5035936;28;20311;-43
2023/04/14 09:11:02;;;;;;;3.33;2.22;;;;;;;;;;5035987;28;20235;-43
2023/04/14 09:13:30;;;;;;;5.60;2.92;;;;;;;;;;5036224;28;20259;-43
2023/04/14 09:15:58;;;;;;;4.72;2.00;;;;;;;;;;5035777;28;20195;-45
2023/04/14 09:18:26;;;;;;;3.63;2.30;;;;;;;;;;5035937;28;20212;-44
2023/04/14 09:20:56;;;;;;;4.65;2.25;;;;;;;;;;5034120;28;20577;-44
2023/04/14 09:23:43;;;;;;;3.28;2.25;;;;;;;;;;5021558;28;20209;-44
2023/04/14 09:26:11;;;;;;;2.63;1.90;;;;;;;;;;5036096;28;20205;-43
2023/04/14 09:28:40;;;;;;;3.33;2.30;;;;;;;;;;5036022;28;20237;-44
2023/04/14 09:31:08;;;;;;;2.42;2.10;;;;;;;;;;5034987;28;20208;-43
2023/04/14 09:33:42;;;;;;;2.45;1.85;;;;;;;;;;5035689;28;20604;-43
2023/04/14 09:36:21;;;;;;;2.63;1.90;;;;;;;;;;5035834;28;20211;-44
2023/04/14 09:38:49;;;;;;;2.53;2.00;;;;;;;;;;5035762;28;20646;-43
2023/04/14 09:41:18;;;;;;;2.33;1.95;;;;;;;;;;5035499;28;20204;-43
2023/04/14 09:43:45;;;;;;;1.70;1.60;;;;;;;;;;5035541;28;20203;-45
2023/04/14 09:46:14;;;;;;;2.10;1.75;;;;;;;;;;5035023;28;20211;-43
2023/04/14 09:48:54;;;;;;;3.28;2.10;;;;;;;;;;5035332;28;20231;-43
2023/04/14 09:51:31;;;;;;;2.55;1.90;;;;;;;;;;5035331;28;20223;-43
2023/04/14 09:54:02;;;;;;;2.55;1.80;;;;;;;;;;5035497;28;20197;-43
2023/04/14 09:56:30;;;;;;;1.92;1.42;;;;;;;;;;5035187;28;20266;-44
2023/04/14 09:58:59;;;;;;;3.33;2.33;;;;;;;;;;5035176;28;20296;-43
2023/04/14 10:01:32;;;;;;;2.47;2.13;;;;;;;;;;5034967;28;20262;-45
2023/04/14 10:04:01;;;;;;;3.15;2.25;;;;;;;;;;5035214;28;20200;-43
2023/04/14 10:06:30;;;;;;;3.38;2.25;;;;;;;;;;5035284;28;20209;-44
2023/04/14 10:08:58;;;;;;;3.90;2.60;;;;;;;;;;5034838;28;20275;-43
2023/04/14 10:11:29;;;;;;;2.45;1.88;;;;;;;;;;5034927;28;20731;-42
2023/04/14 10:14:05;;;;;;;2.53;2.10;;;;;;;;;;5035202;28;20200;-42
2023/04/14 10:16:33;;;;;;;4.90;2.42;;;;;;;;;;5034469;28;20216;-43
2023/04/14 10:19:00;;;;;;;2.53;2.20;;;;;;;;;;5030347;28;20235;-44
2023/04/14 10:21:29;;;;;;;2.80;2.05;;;;;;;;;;5033710;28;20235;-43
2023/04/14 10:36:43;;;;;;;2.72;1.90;;;;;;;;;;5109468;27;21131;-52
2023/04/14 10:39:11;;;;;;;2.45;1.88;;;;;;;;;;5109238;28;20220;-50
2023/04/14 10:41:49;;;;;;;2.03;1.80;;;;;;;;;;5107370;28;20267;-57
2023/04/14 10:44:27;;;;;;;4.55;2.80;;;;;;;;;;5109947;28;20234;-50
2023/04/14 10:46:55;;;;;;;3.88;2.45;;;;;;;;;;5109650;27;20241;-50
2023/04/14 10:49:44;;;;;;;2.67;2.05;;;;;;;;;;5107424;28;20221;-51
2023/04/14 10:52:12;;;;;;;2.22;2.03;;;;;;;;;;5106461;27;20221;-51
2023/04/14 10:54:57;;;;;;;1.85;1.60;;;;;;;;;;5109347;28;20222;-53
2023/04/14 10:57:25;;;;;;;3.08;1.88;;;;;;;;;;5109156;28;20236;-51
2023/04/14 10:59:57;;;;;;;3.35;2.20;;;;;;;;;;5109834;28;20275;-51
2023/04/14 11:02:24;;;;;;;4.25;2.50;;;;;;;;;;5109496;27;20232;-52
2023/04/14 11:05:03;;;;;;;2.45;1.70;;;;;;;;;;5109092;28;20260;-54
2023/04/14 11:07:36;;;;;;;2.25;1.83;;;;;;;;;;5109551;27;20241;-55
2023/04/14 11:10:23;;;;;;;7.68;2.30;;;;;;;;;;5109263;28;20249;-56
2023/04/14 11:12:56;;;;;;;2.20;1.50;;;;;;;;;;5109326;28;20296;-57
2023/04/14 11:15:23;;;;;;;3.92;2.00;;;;;;;;;;5109489;28;20221;-59
2023/04/14 11:17:50;;;;;;;2.40;1.75;;;;;;;;;;5102365;28;20224;-51
2023/04/14 11:20:20;;;;;;;2.88;2.03;;;;;;;;;;5099681;28;20215;-59
2023/04/14 11:22:49;;;;;;;1.95;1.73;;;;;;;;;;5087704;27;20219;-53
2023/04/14 11:25:18;;;;;;;3.03;2.05;;;;;;;;;;5087892;28;20235;-54
2023/04/14 11:59:12;;;;;;;3.38;1.80;;;;;;;;;;5109135;27;20535;-59
2023/04/14 12:01:40;;;;;;;1.63;1.52;;;;;;;;;;5098716;28;20223;-62
2023/04/14 12:04:09;;;;;;;2.10;1.60;;;;;;;;;;5098338;27;20222;-61
2023/04/14 12:06:37;;;;;;;4.78;2.58;;;;;;;;;;5093088;28;20229;-61
2023/04/14 12:09:07;;;;;;;2.10;1.20;;;;;;;;;;5095494;28;20627;-62
2023/04/14 12:11:35;;;;;;;2.58;1.52;;;;;;;;;;5097484;28;20218;-62
2023/04/14 12:14:02;;;;;;;1.90;1.60;;;;;;;;;;5091440;28;20230;-62
2023/04/14 12:16:30;;;;;;;1.70;1.30;;;;;;;;;;5087860;28;20639;-61
2023/04/14 12:18:57;;;;;;;1.60;1.35;;;;;;;;;;5088912;28;20214;-62
2023/04/14 12:21:25;;;;;;;1.98;1.42;;;;;;;;;;5089517;28;20223;-61
2023/04/14 12:23:53;;;;;;;2.08;1.70;;;;;;;;;;5089243;28;20234;-62
2023/04/14 12:26:20;;;;;;;2.50;1.45;;;;;;;;;;5096775;28;20218;-61
2023/04/14 12:28:54;;;;;;;3.28;1.20;;;;;;;;;;5091732;28;20234;-62
2023/04/14 12:31:28;;;;;;;1.38;1.23;;;;;;;;;;5093547;28;20206;-62
2023/04/14 12:34:00;;;;;;;1.92;1.50;;;;;;;;;;5096069;27;20222;-62
2023/04/14 12:36:28;;;;;;;3.40;1.35;;;;;;;;;;5096077;28;20218;-61
2023/04/14 12:39:15;;;;;;;2.20;1.92;;;;;;;;;;5096164;28;20601;-62
2023/04/14 12:41:42;;;;;;;2.72;2.10;;;;;;;;;;5098449;28;20222;-62
2023/04/14 12:44:20;;;;;;;2.10;1.63;;;;;;;;;;5088930;27;20215;-62
2023/04/14 12:46:51;;;;;;;4.20;1.88;;;;;;;;;;5090079;28;20236;-61
2023/04/14 12:49:29;;;;;;;2.35;1.67;;;;;;;;;;5089154;28;20215;-62
2023/04/14 12:51:56;;;;;;;2.25;1.58;;;;;;;;;;5088303;28;20568;-62
2023/04/14 12:54:23;;;;;;;1.85;1.40;;;;;;;;;;5088667;28;20234;-61
2023/04/14 12:56:52;;;;;;;2.47;1.55;;;;;;;;;;5087413;28;20272;-61
2023/04/14 12:59:19;;;;;;;1.63;1.42;;;;;;;;;;5080000;28;20710;-62
2023/04/14 13:01:46;;;;;;;3.00;1.85;;;;;;;;;;5078090;28;20224;-62
2023/04/14 13:17:12;;;;;;;2.45;1.70;;;;;;;;;;5110150;27;20553;-61
2023/04/14 13:19:40;;;;;;;3.03;1.70;;;;;;;;;;5097050;28;20222;-61
2023/04/14 13:22:07;;;;;;;2.50;1.63;;;;;;;;;;5109665;27;20222;-61
2023/04/14 13:24:35;;;;;;;1.85;1.60;;;;;;;;;;5109932;28;20249;-61
2023/04/14 13:27:02;;;;;;;2.28;1.38;;;;;;;;;;5109691;28;20214;-61
2023/04/14 13:29:31;;;;;;;1.83;1.63;;;;;;;;;;5109396;28;20229;-60
2023/04/14 13:31:59;;;;;;;1.63;1.48;;;;;;;;;;5108919;28;20237;-61
2023/04/14 13:34:27;;;;;;;2.90;1.33;;;;;;;;;;5109000;28;20210;-61
2023/04/14 13:36:54;;;;;;;1.63;1.48;;;;;;;;;;5108780;28;20697;-61
2023/04/14 13:39:22;;;;;;;2.20;1.50;;;;;;;;;;5108354;28;20226;-61
2023/04/14 13:41:49;;;;;;;9.52;5.95;;;;;;;;;;5108623;28;20226;-61
2023/04/14 13:44:17;;;;;;;2.33;1.73;;;;;;;;;;5109319;28;20230;-61
2023/04/14 13:46:44;;;;;;;18.10;6.78;;;;;;;;;;5106248;28;20743;-60
2023/04/14 13:49:12;;;;;;;2.25;1.60;;;;;;;;;;5105794;28;20218;-60
2023/04/14 13:51:38;;;;;;;3.40;2.17;;;;;;;;;;5108104;27;20229;-60
2023/04/14 13:54:06;;;;;;;3.10;1.75;;;;;;;;;;5108981;28;20218;-60
2023/04/14 13:56:33;;;;;;;2.58;2.08;;;;;;;;;;5108413;27;20313;-60
2023/04/14 13:59:00;;;;;;;22.40;10.85;;;;;;;;;;5108914;28;20283;-60
2023/04/14 14:01:28;;;;;;;4.68;2.63;;;;;;;;;;5106301;27;20226;-60
2023/04/14 14:03:55;;;;;;;3.22;1.83;;;;;;;;;;5106788;28;20758;-59
2023/04/14 14:06:22;;;;;;;1.85;1.42;;;;;;;;;;5107417;28;20331;-62
2023/04/14 14:09:01;;;;;;;2.00;1.60;;;;;;;;;;5107324;28;20267;-62
2023/04/14 14:11:31;;;;;;;2.83;1.80;;;;;;;;;;5105625;27;20222;-61
2023/04/14 14:13:58;;;;;;;3.00;2.05;;;;;;;;;;5108127;28;20221;-62
2023/04/14 14:16:26;;;;;;;3.33;1.98;;;;;;;;;;5103600;28;20287;-60
2023/04/14 14:18:56;;;;;;;6.20;2.75;;;;;;;;;;5094476;28;20581;-60
2023/04/14 14:21:24;;;;;;;1.23;1.13;;;;;;;;;;5093864;28;20221;-60
2023/04/14 14:23:51;;;;;;;12.98;7.28;;;;;;;;;;5091843;28;20210;-59
2023/04/14 14:26:18;;;;;;;5.45;2.67;;;;;;;;;;5094171;28;20230;-60
2023/04/14 14:28:46;;;;;;;2.42;1.30;;;;;;;;;;5094282;28;20223;-60
2023/04/14 14:31:13;;;;;;;1.60;1.40;;;;;;;;;;5091912;28;20211;-60
2023/04/14 14:33:40;;;;;;;1.63;1.50;;;;;;;;;;5093287;28;20316;-60
2023/04/14 14:36:07;;;;;;;1.40;0.98;;;;;;;;;;5093638;28;20218;-60
2023/04/14 14:38:36;;;;;;;1.65;1.17;;;;;;;;;;5093582;28;20218;-61
2023/04/14 14:41:03;;;;;;;1.65;1.55;;;;;;;;;;5094910;28;20222;-61
2023/04/14 14:43:31;;;;;;;1.92;1.38;;;;;;;;;;5077075;28;20270;-61
2023/04/14 14:46:00;;;;;;;1.63;1.40;;;;;;;;;;5094282;28;20250;-60
2023/04/14 14:48:27;;;;;;;1.83;1.52;;;;;;;;;;5092612;28;20218;-60
2023/04/14 14:50:54;;;;;;;2.20;1.80;;;;;;;;;;5093667;28;20230;-58
2023/04/14 14:53:21;;;;;;;2.42;1.35;;;;;;;;;;5091054;28;20543;-60
2023/04/14 14:55:48;;;;;;;3.83;1.73;;;;;;;;;;5094992;28;20222;-60
2023/04/14 15:18:40;;;;;;;2.60;1.77;;;;;;;;;;5116010;27;20562;-55
2023/04/14 15:21:07;;;;;;;2.00;1.58;;;;;;;;;;5098029;28;20222;-54
2023/04/14 15:23:38;;;;;;;1.70;1.45;;;;;;;;;;5084178;28;20210;-54
2023/04/14 15:26:05;;;;;;;3.45;2.20;;;;;;;;;;5096602;28;20218;-52
2023/04/14 15:28:32;;;;;;;1.50;1.40;;;;;;;;;;5097996;28;20241;-51
2023/04/14 15:30:59;;;;;;;1.92;1.65;;;;;;;;;;5086700;28;20234;-49
2023/04/14 15:33:28;;;;;;;2.47;1.52;;;;;;;;;;5083153;28;20223;-53
2023/04/14 15:35:55;;;;;;;2.67;1.30;;;;;;;;;;5073499;28;20227;-51
2023/04/14 15:38:22;;;;;;;3.72;2.38;;;;;;;;;;5069077;28;20314;-56
2023/04/14 15:40:52;;;;;;;3.22;1.77;;;;;;;;;;5080967;28;20235;-55
2023/04/14 15:43:20;;;;;;;1.70;1.60;;;;;;;;;;5069544;28;20623;-55
2023/04/14 15:45:47;;;;;;;2.33;1.83;;;;;;;;;;5071365;28;20235;-52
2023/04/14 15:48:14;;;;;;;2.10;1.42;;;;;;;;;;5089434;28;20276;-54
2023/04/14 15:50:42;;;;;;;3.72;2.08;;;;;;;;;;5089456;28;20783;-55
2023/04/14 15:53:11;;;;;;;3.22;1.60;;;;;;;;;;5072503;28;20226;-57
2023/04/14 15:55:39;;;;;;;1.73;1.60;;;;;;;;;;5100306;28;20222;-54
2023/04/14 15:58:06;;;;;;;2.15;1.50;;;;;;;;;;5096974;28;20621;-55
2023/04/14 16:00:33;;;;;;;2.28;1.50;;;;;;;;;;5091945;28;20225;-55
2023/04/14 16:03:01;;;;;;;1.92;1.45;;;;;;;;;;5090520;28;20234;-55
2023/04/14 16:05:28;;;;;;;2.60;1.60;;;;;;;;;;5099288;28;20222;-58
2023/04/14 16:07:55;;;;;;;2.63;1.83;;;;;;;;;;5093449;28;20236;-55
2023/04/14 16:10:24;;;;;;;3.65;1.88;;;;;;;;;;5097793;28;20225;-56
2023/04/14 16:12:51;;;;;;;2.15;1.70;;;;;;;;;;5099030;28;20225;-56
2023/04/14 16:15:19;;;;;;;1.90;1.58;;;;;;;;;;5090078;28;20596;-59